sensor_id;sensor_type;location;lat;lon;timestamp;P1;durP1;ratioP1;P2;durP2;ratioP2
39442;SDS011;25147;52.142;9.960;2024-03-23T00:55:32;12.13;;;6.00;;
39442;SDS011;25147;52.142;9.960;2024-03-23T00:58:02;10.18;;;6.05;;
39442;SDS011;25147;52.142;9.960;2024-03-23T01:00:33;10.52;;;6.28;;
39442;SDS011;25147;52.142;9.960;2024-03-23T01:03:16;10.88;;;6.03;;
39442;SDS011;25147;52.142;9.960;2024-03-23T01:05:44;11.35;;;6.22;;
39442;SDS011;25147;52.142;9.960;2024-03-23T01:08:14;12.55;;;5.32;;
39442;SDS011;25147;52.142;9.960;2024-03-23T01:10:54;10.63;;;5.40;;
39442;SDS011;25147;52.142;9.960;2024-03-23T01:13:22;12.68;;;5.38;;
39442;SDS011;25147;52.142;9.960;2024-03-23T01:15:51;11.05;;;4.82;;
39442;SDS011;25147;52.142;9.960;2024-03-23T01:18:18;11.93;;;5.10;;
39442;SDS011;25147;52.142;9.960;2024-03-23T01:20:48;13.10;;;4.93;;
39442;SDS011;25147;52.142;9.960;2024-03-23T01:23:20;10.68;;;4.53;;
39442;SDS011;25147;52.142;9.960;2024-03-23T01:25:51;10.88;;;5.22;;
39442;SDS011;25147;52.142;9.960;2024-03-23T01:28:20;12.65;;;4.45;;
39442;SDS011;25147;52.142;9.960;2024-03-23T01:30:51;9.40;;;4.47;;
39442;SDS011;25147;52.142;9.960;2024-03-23T01:33:18;7.47;;;4.38;;
39442;SDS011;25147;52.142;9.960;2024-03-23T01:35:50;11.23;;;4.38;;
39442;SDS011;25147;52.142;9.960;2024-03-23T01:38:20;10.90;;;5.05;;
39442;SDS011;25147;52.142;9.960;2024-03-23T01:40:49;10.65;;;3.97;;
39442;SDS011;25147;52.142;9.960;2024-03-23T01:43:16;11.98;;;4.53;;
39442;SDS011;25147;52.142;9.960;2024-03-23T01:45:47;8.20;;;4.22;;
39442;SDS011;25147;52.142;9.960;2024-03-23T01:48:23;8.35;;;4.55;;
39442;SDS011;25147;52.142;9.960;2024-03-23T01:50:51;9.80;;;4.45;;
39442;SDS011;25147;52.142;9.960;2024-03-23T01:53:18;9.00;;;4.82;;
39442;SDS011;25147;52.142;9.960;2024-03-23T01:55:47;13.05;;;5.35;;
39442;SDS011;25147;52.142;9.960;2024-03-23T01:58:16;12.00;;;5.28;;
39442;SDS011;25147;52.142;9.960;2024-03-23T02:00:43;9.60;;;5.20;;
39442;SDS011;25147;52.142;9.960;2024-03-23T02:03:24;12.70;;;5.43;;
39442;SDS011;25147;52.142;9.960;2024-03-23T02:05:51;12.88;;;5.05;;
39442;SDS011;25147;52.142;9.960;2024-03-23T02:08:23;9.50;;;4.68;;
39442;SDS011;25147;52.142;9.960;2024-03-23T02:10:50;14.93;;;4.93;;
39442;SDS011;25147;52.142;9.960;2024-03-23T02:13:24;9.45;;;4.90;;
39442;SDS011;25147;52.142;9.960;2024-03-23T02:15:56;11.38;;;4.97;;
39442;SDS011;25147;52.142;9.960;2024-03-23T02:18:25;11.15;;;4.95;;
39442;SDS011;25147;52.142;9.960;2024-03-23T02:20:54;11.07;;;4.97;;
39442;SDS011;25147;52.142;9.960;2024-03-23T02:23:26;16.25;;;5.32;;
39442;SDS011;25147;52.142;9.960;2024-03-23T02:25:57;12.88;;;5.78;;
39442;SDS011;25147;52.142;9.960;2024-03-23T02:28:30;12.32;;;5.40;;
39442;SDS011;25147;52.142;9.960;2024-03-23T02:30:56;13.05;;;5.45;;
39442;SDS011;25147;52.142;9.960;2024-03-23T02:33:32;10.77;;;5.63;;
39442;SDS011;25147;52.142;9.960;2024-03-23T02:36:09;9.88;;;5.35;;
39442;SDS011;25147;52.142;9.960;2024-03-23T02:41:45;11.10;;;5.57;;
39442;SDS011;25147;52.142;9.960;2024-03-23T02:44:15;10.77;;;4.65;;
39442;SDS011;25147;52.142;9.960;2024-03-23T02:46:41;11.60;;;5.35;;
39442;SDS011;25147;52.142;9.960;2024-03-23T02:49:11;13.15;;;5.18;;
39442;SDS011;25147;52.142;9.960;2024-03-23T02:51:37;18.40;;;5.15;;
39442;SDS011;25147;52.142;9.960;2024-03-23T02:54:19;12.68;;;5.10;;
39442;SDS011;25147;52.142;9.960;2024-03-23T02:56:51;10.40;;;5.05;;
39442;SDS011;25147;52.142;9.960;2024-03-23T02:59:22;8.05;;;5.18;;
39442;SDS011;25147;52.142;9.960;2024-03-23T03:01:51;14.85;;;5.70;;
39442;SDS011;25147;52.142;9.960;2024-03-23T03:04:18;6.60;;;4.40;;
39442;SDS011;25147;52.142;9.960;2024-03-23T03:06:46;12.07;;;5.05;;
39442;SDS011;25147;52.142;9.960;2024-03-23T03:09:14;15.10;;;5.15;;
39442;SDS011;25147;52.142;9.960;2024-03-23T03:11:42;12.02;;;5.75;;
39442;SDS011;25147;52.142;9.960;2024-03-23T03:14:18;14.05;;;5.72;;
39442;SDS011;25147;52.142;9.960;2024-03-23T03:16:48;8.98;;;4.93;;
39442;SDS011;25147;52.142;9.960;2024-03-23T03:19:19;9.73;;;4.93;;
39442;SDS011;25147;52.142;9.960;2024-03-23T03:21:45;8.93;;;5.25;;
39442;SDS011;25147;52.142;9.960;2024-03-23T03:24:18;10.93;;;5.22;;
39442;SDS011;25147;52.142;9.960;2024-03-23T03:26:59;10.07;;;5.13;;
39442;SDS011;25147;52.142;9.960;2024-03-23T03:29:42;14.07;;;5.50;;
39442;SDS011;25147;52.142;9.960;2024-03-23T03:32:11;12.02;;;5.38;;
39442;SDS011;25147;52.142;9.960;2024-03-23T03:34:46;11.15;;;5.38;;
39442;SDS011;25147;52.142;9.960;2024-03-23T03:37:23;13.18;;;6.10;;
39442;SDS011;25147;52.142;9.960;2024-03-23T03:40:09;12.80;;;6.07;;
39442;SDS011;25147;52.142;9.960;2024-03-23T03:42:38;14.40;;;5.47;;
39442;SDS011;25147;52.142;9.960;2024-03-23T03:45:13;9.27;;;6.03;;
39442;SDS011;25147;52.142;9.960;2024-03-23T03:47:44;13.13;;;5.80;;
39442;SDS011;25147;52.142;9.960;2024-03-23T03:50:16;14.73;;;6.75;;
39442;SDS011;25147;52.142;9.960;2024-03-23T03:52:45;10.23;;;5.70;;
39442;SDS011;25147;52.142;9.960;2024-03-23T03:55:26;13.88;;;5.68;;
39442;SDS011;25147;52.142;9.960;2024-03-23T03:58:25;12.10;;;5.38;;
39442;SDS011;25147;52.142;9.960;2024-03-23T04:04:37;13.20;;;5.75;;
39442;SDS011;25147;52.142;9.960;2024-03-23T04:07:16;9.60;;;5.85;;
39442;SDS011;25147;52.142;9.960;2024-03-23T04:17:14;12.75;;;4.97;;
39442;SDS011;25147;52.142;9.960;2024-03-23T04:30:40;6.80;;;3.25;;
39442;SDS011;25147;52.142;9.960;2024-03-23T04:33:16;7.65;;;4.10;;
39442;SDS011;25147;52.142;9.960;2024-03-23T04:35:54;8.95;;;3.10;;
39442;SDS011;25147;52.142;9.960;2024-03-23T04:39:14;6.55;;;3.25;;
39442;SDS011;25147;52.142;9.960;2024-03-23T04:46:09;7.28;;;3.00;;
39442;SDS011;25147;52.142;9.960;2024-03-23T04:53:29;7.90;;;2.47;;
39442;SDS011;25147;52.142;9.960;2024-03-23T04:59:58;6.38;;;2.10;;
39442;SDS011;25147;52.142;9.960;2024-03-23T05:02:45;4.60;;;1.95;;
39442;SDS011;25147;52.142;9.960;2024-03-23T05:05:14;7.53;;;2.58;;
39442;SDS011;25147;52.142;9.960;2024-03-23T05:07:45;5.60;;;2.85;;
39442;SDS011;25147;52.142;9.960;2024-03-23T05:10:23;8.02;;;2.40;;
39442;SDS011;25147;52.142;9.960;2024-03-23T05:12:55;11.07;;;2.65;;
39442;SDS011;25147;52.142;9.960;2024-03-23T05:15:31;8.75;;;2.38;;
39442;SDS011;25147;52.142;9.960;2024-03-23T05:18:18;8.32;;;2.75;;
39442;SDS011;25147;52.142;9.960;2024-03-23T05:20:55;8.30;;;2.58;;
39442;SDS011;25147;52.142;9.960;2024-03-23T05:23:51;10.02;;;2.67;;
39442;SDS011;25147;52.142;9.960;2024-03-23T05:29:30;7.45;;;2.60;;
39442;SDS011;25147;52.142;9.960;2024-03-23T05:32:16;7.35;;;2.85;;
39442;SDS011;25147;52.142;9.960;2024-03-23T05:35:30;8.23;;;2.83;;
39442;SDS011;25147;52.142;9.960;2024-03-23T05:38:24;10.95;;;2.72;;
39442;SDS011;25147;52.142;9.960;2024-03-23T05:44:09;5.50;;;3.13;;
39442;SDS011;25147;52.142;9.960;2024-03-23T05:47:23;7.60;;;2.80;;
39442;SDS011;25147;52.142;9.960;2024-03-23T05:49:55;6.63;;;2.45;;
39442;SDS011;25147;52.142;9.960;2024-03-23T05:53:09;9.45;;;3.10;;
39442;SDS011;25147;52.142;9.960;2024-03-23T05:56:55;7.22;;;2.75;;
39442;SDS011;25147;52.142;9.960;2024-03-23T06:00:02;9.57;;;3.38;;
39442;SDS011;25147;52.142;9.960;2024-03-23T06:09:49;11.30;;;3.38;;
39442;SDS011;25147;52.142;9.960;2024-03-23T06:12:23;6.82;;;2.90;;
39442;SDS011;25147;52.142;9.960;2024-03-23T06:15:12;8.43;;;2.80;;
39442;SDS011;25147;52.142;9.960;2024-03-23T06:17:50;11.82;;;3.45;;
39442;SDS011;25147;52.142;9.960;2024-03-23T06:20:18;6.57;;;2.75;;
39442;SDS011;25147;52.142;9.960;2024-03-23T06:22:51;10.25;;;2.58;;
39442;SDS011;25147;52.142;9.960;2024-03-23T06:28:32;8.85;;;2.55;;
39442;SDS011;25147;52.142;9.960;2024-03-23T06:31:00;9.93;;;2.85;;
39442;SDS011;25147;52.142;9.960;2024-03-23T06:33:30;9.13;;;2.83;;
39442;SDS011;25147;52.142;9.960;2024-03-23T06:36:07;12.85;;;3.05;;
39442;SDS011;25147;52.142;9.960;2024-03-23T06:38:54;11.45;;;3.17;;
39442;SDS011;25147;52.142;9.960;2024-03-23T06:41:51;9.15;;;3.53;;
39442;SDS011;25147;52.142;9.960;2024-03-23T06:44:28;7.70;;;2.53;;
39442;SDS011;25147;52.142;9.960;2024-03-23T06:47:09;13.38;;;3.03;;
39442;SDS011;25147;52.142;9.960;2024-03-23T06:49:38;10.88;;;2.72;;
39442;SDS011;25147;52.142;9.960;2024-03-23T06:52:08;12.75;;;2.72;;
39442;SDS011;25147;52.142;9.960;2024-03-23T06:54:37;14.23;;;3.17;;
39442;SDS011;25147;52.142;9.960;2024-03-23T06:57:10;8.65;;;2.72;;
39442;SDS011;25147;52.142;9.960;2024-03-23T06:59:41;11.30;;;2.80;;
39442;SDS011;25147;52.142;9.960;2024-03-23T07:02:13;14.63;;;3.70;;
39442;SDS011;25147;52.142;9.960;2024-03-23T07:04:41;7.32;;;2.38;;
39442;SDS011;25147;52.142;9.960;2024-03-23T07:07:17;7.18;;;2.20;;
39442;SDS011;25147;52.142;9.960;2024-03-23T07:09:43;12.07;;;2.80;;
39442;SDS011;25147;52.142;9.960;2024-03-23T07:12:18;5.13;;;2.15;;
39442;SDS011;25147;52.142;9.960;2024-03-23T07:14:45;6.72;;;2.42;;
39442;SDS011;25147;52.142;9.960;2024-03-23T07:20:07;8.18;;;2.50;;
39442;SDS011;25147;52.142;9.960;2024-03-23T07:22:39;7.20;;;2.20;;
39442;SDS011;25147;52.142;9.960;2024-03-23T07:25:11;7.90;;;2.33;;
39442;SDS011;25147;52.142;9.960;2024-03-23T07:27:38;8.48;;;2.30;;
39442;SDS011;25147;52.142;9.960;2024-03-23T07:30:04;8.00;;;2.50;;
39442;SDS011;25147;52.142;9.960;2024-03-23T07:32:35;7.95;;;2.95;;
39442;SDS011;25147;52.142;9.960;2024-03-23T07:35:04;10.52;;;2.70;;
39442;SDS011;25147;52.142;9.960;2024-03-23T07:37:42;8.65;;;2.55;;
39442;SDS011;25147;52.142;9.960;2024-03-23T07:40:11;8.35;;;2.25;;
39442;SDS011;25147;52.142;9.960;2024-03-23T07:42:38;7.72;;;2.55;;
39442;SDS011;25147;52.142;9.960;2024-03-23T07:45:05;7.18;;;2.85;;
39442;SDS011;25147;52.142;9.960;2024-03-23T07:47:33;9.00;;;2.35;;
39442;SDS011;25147;52.142;9.960;2024-03-23T07:50:00;7.43;;;2.38;;
39442;SDS011;25147;52.142;9.960;2024-03-23T07:52:28;6.47;;;2.67;;
39442;SDS011;25147;52.142;9.960;2024-03-23T07:54:57;8.38;;;2.88;;
39442;SDS011;25147;52.142;9.960;2024-03-23T07:57:28;9.55;;;3.30;;
39442;SDS011;25147;52.142;9.960;2024-03-23T07:59:54;5.53;;;2.60;;
39442;SDS011;25147;52.142;9.960;2024-03-23T08:02:24;5.85;;;2.40;;
39442;SDS011;25147;52.142;9.960;2024-03-23T08:04:51;4.47;;;2.35;;
39442;SDS011;25147;52.142;9.960;2024-03-23T08:07:20;7.43;;;2.67;;
39442;SDS011;25147;52.142;9.960;2024-03-23T08:09:46;8.90;;;3.50;;
39442;SDS011;25147;52.142;9.960;2024-03-23T08:12:14;11.70;;;4.03;;
39442;SDS011;25147;52.142;9.960;2024-03-23T08:14:43;7.57;;;2.88;;
39442;SDS011;25147;52.142;9.960;2024-03-23T08:17:10;7.85;;;3.60;;
39442;SDS011;25147;52.142;9.960;2024-03-23T08:19:37;8.40;;;3.95;;
39442;SDS011;25147;52.142;9.960;2024-03-23T08:22:04;10.18;;;3.60;;
39442;SDS011;25147;52.142;9.960;2024-03-23T08:24:31;10.05;;;4.00;;
39442;SDS011;25147;52.142;9.960;2024-03-23T08:26:57;7.70;;;3.90;;
39442;SDS011;25147;52.142;9.960;2024-03-23T08:29:24;9.65;;;3.95;;
39442;SDS011;25147;52.142;9.960;2024-03-23T08:31:50;9.75;;;3.95;;
39442;SDS011;25147;52.142;9.960;2024-03-23T08:34:17;12.85;;;4.45;;
39442;SDS011;25147;52.142;9.960;2024-03-23T08:36:43;13.60;;;4.85;;
39442;SDS011;25147;52.142;9.960;2024-03-23T08:39:11;10.88;;;4.60;;
39442;SDS011;25147;52.142;9.960;2024-03-23T08:41:37;11.75;;;5.10;;
39442;SDS011;25147;52.142;9.960;2024-03-23T08:44:04;11.50;;;5.03;;
39442;SDS011;25147;52.142;9.960;2024-03-23T08:46:33;15.77;;;5.93;;
39442;SDS011;25147;52.142;9.960;2024-03-23T08:48:59;11.32;;;5.32;;
39442;SDS011;25147;52.142;9.960;2024-03-23T08:51:27;11.27;;;5.53;;
39442;SDS011;25147;52.142;9.960;2024-03-23T08:53:54;13.13;;;5.53;;
39442;SDS011;25147;52.142;9.960;2024-03-23T08:56:21;15.38;;;6.60;;
39442;SDS011;25147;52.142;9.960;2024-03-23T08:58:48;20.27;;;6.45;;
39442;SDS011;25147;52.142;9.960;2024-03-23T09:01:14;18.73;;;6.60;;
39442;SDS011;25147;52.142;9.960;2024-03-23T09:03:41;17.35;;;7.28;;
39442;SDS011;25147;52.142;9.960;2024-03-23T09:06:10;14.82;;;7.25;;
39442;SDS011;25147;52.142;9.960;2024-03-23T09:08:40;14.95;;;8.15;;
39442;SDS011;25147;52.142;9.960;2024-03-23T09:11:10;17.92;;;6.85;;
39442;SDS011;25147;52.142;9.960;2024-03-23T09:13:43;14.82;;;6.57;;
39442;SDS011;25147;52.142;9.960;2024-03-23T09:16:11;10.77;;;6.85;;
39442;SDS011;25147;52.142;9.960;2024-03-23T09:18:41;15.88;;;7.07;;
39442;SDS011;25147;52.142;9.960;2024-03-23T09:21:16;13.65;;;6.70;;
39442;SDS011;25147;52.142;9.960;2024-03-23T09:23:51;14.93;;;6.25;;
39442;SDS011;25147;52.142;9.960;2024-03-23T09:26:22;15.57;;;5.95;;
39442;SDS011;25147;52.142;9.960;2024-03-23T09:28:53;14.15;;;6.05;;
39442;SDS011;25147;52.142;9.960;2024-03-23T09:31:22;15.93;;;6.18;;
39442;SDS011;25147;52.142;9.960;2024-03-23T09:34:28;20.52;;;6.40;;
39442;SDS011;25147;52.142;9.960;2024-03-23T09:37:32;16.55;;;5.38;;
39442;SDS011;25147;52.142;9.960;2024-03-23T09:40:01;17.25;;;6.28;;
39442;SDS011;25147;52.142;9.960;2024-03-23T09:42:27;15.32;;;5.63;;
39442;SDS011;25147;52.142;9.960;2024-03-23T09:44:56;17.52;;;5.97;;
39442;SDS011;25147;52.142;9.960;2024-03-23T09:47:26;13.80;;;5.70;;
39442;SDS011;25147;52.142;9.960;2024-03-23T09:49:59;14.15;;;6.65;;
39442;SDS011;25147;52.142;9.960;2024-03-23T09:52:26;17.13;;;5.75;;
39442;SDS011;25147;52.142;9.960;2024-03-23T09:54:57;14.27;;;5.80;;
39442;SDS011;25147;52.142;9.960;2024-03-23T09:57:23;14.25;;;5.90;;
39442;SDS011;25147;52.142;9.960;2024-03-23T09:59:53;15.98;;;5.47;;
39442;SDS011;25147;52.142;9.960;2024-03-23T10:02:22;11.98;;;4.82;;
39442;SDS011;25147;52.142;9.960;2024-03-23T10:04:52;20.60;;;6.20;;
39442;SDS011;25147;52.142;9.960;2024-03-23T10:07:23;12.82;;;5.25;;
39442;SDS011;25147;52.142;9.960;2024-03-23T10:10:10;11.07;;;4.90;;
39442;SDS011;25147;52.142;9.960;2024-03-23T10:12:40;16.23;;;5.75;;
39442;SDS011;25147;52.142;9.960;2024-03-23T10:15:15;13.35;;;4.88;;
39442;SDS011;25147;52.142;9.960;2024-03-23T10:17:45;13.18;;;5.32;;
39442;SDS011;25147;52.142;9.960;2024-03-23T10:20:19;14.60;;;4.80;;
39442;SDS011;25147;52.142;9.960;2024-03-23T10:22:45;11.70;;;5.15;;
39442;SDS011;25147;52.142;9.960;2024-03-23T10:25:13;10.82;;;4.20;;
39442;SDS011;25147;52.142;9.960;2024-03-23T10:27:39;8.32;;;4.45;;
39442;SDS011;25147;52.142;9.960;2024-03-23T10:30:08;11.23;;;4.20;;
39442;SDS011;25147;52.142;9.960;2024-03-23T10:32:35;13.48;;;4.40;;
39442;SDS011;25147;52.142;9.960;2024-03-23T10:35:18;11.05;;;4.32;;
39442;SDS011;25147;52.142;9.960;2024-03-23T10:37:47;13.27;;;4.50;;
39442;SDS011;25147;52.142;9.960;2024-03-23T10:40:15;11.70;;;4.47;;
39442;SDS011;25147;52.142;9.960;2024-03-23T10:42:41;13.50;;;4.55;;
39442;SDS011;25147;52.142;9.960;2024-03-23T10:45:09;13.68;;;4.97;;
39442;SDS011;25147;52.142;9.960;2024-03-23T10:47:36;12.18;;;4.35;;
39442;SDS011;25147;52.142;9.960;2024-03-23T10:50:04;13.10;;;3.70;;
39442;SDS011;25147;52.142;9.960;2024-03-23T10:52:32;9.27;;;4.65;;
39442;SDS011;25147;52.142;9.960;2024-03-23T10:55:04;10.88;;;3.80;;
39442;SDS011;25147;52.142;9.960;2024-03-23T10:57:34;9.43;;;3.53;;
39442;SDS011;25147;52.142;9.960;2024-03-23T11:00:12;10.65;;;3.63;;
39442;SDS011;25147;52.142;9.960;2024-03-23T11:02:40;10.00;;;4.00;;
39442;SDS011;25147;52.142;9.960;2024-03-23T11:07:55;6.65;;;2.80;;
39442;SDS011;25147;52.142;9.960;2024-03-23T11:10:28;4.20;;;2.05;;
39442;SDS011;25147;52.142;9.960;2024-03-23T11:12:57;5.82;;;2.08;;
39442;SDS011;25147;52.142;9.960;2024-03-23T11:15:53;3.15;;;1.60;;
39442;SDS011;25147;52.142;9.960;2024-03-23T11:18:21;3.22;;;1.27;;
39442;SDS011;25147;52.142;9.960;2024-03-23T11:20:50;6.57;;;1.80;;
39442;SDS011;25147;52.142;9.960;2024-03-23T11:23:28;7.88;;;2.05;;
39442;SDS011;25147;52.142;9.960;2024-03-23T11:25:55;5.82;;;2.50;;
39442;SDS011;25147;52.142;9.960;2024-03-23T11:28:21;5.82;;;2.17;;
39442;SDS011;25147;52.142;9.960;2024-03-23T11:30:53;7.65;;;2.30;;
39442;SDS011;25147;52.142;9.960;2024-03-23T11:33:28;6.70;;;2.85;;
39442;SDS011;25147;52.142;9.960;2024-03-23T11:35:57;5.93;;;2.83;;
39442;SDS011;25147;52.142;9.960;2024-03-23T11:38:23;11.40;;;3.90;;
39442;SDS011;25147;52.142;9.960;2024-03-23T11:41:04;12.25;;;3.80;;
39442;SDS011;25147;52.142;9.960;2024-03-23T11:43:30;8.13;;;4.13;;
39442;SDS011;25147;52.142;9.960;2024-03-23T11:45:57;10.27;;;4.28;;
39442;SDS011;25147;52.142;9.960;2024-03-23T11:48:23;7.60;;;3.88;;
39442;SDS011;25147;52.142;9.960;2024-03-23T11:50:54;9.43;;;3.42;;
39442;SDS011;25147;52.142;9.960;2024-03-23T11:53:24;6.65;;;2.58;;
39442;SDS011;25147;52.142;9.960;2024-03-23T11:55:53;7.28;;;2.60;;
39442;SDS011;25147;52.142;9.960;2024-03-23T11:58:23;2.50;;;1.92;;
39442;SDS011;25147;52.142;9.960;2024-03-23T12:00:51;6.13;;;2.08;;
39442;SDS011;25147;52.142;9.960;2024-03-23T12:03:17;4.95;;;1.98;;
39442;SDS011;25147;52.142;9.960;2024-03-23T12:05:50;2.88;;;1.77;;
39442;SDS011;25147;52.142;9.960;2024-03-23T12:08:23;7.70;;;2.33;;
39442;SDS011;25147;52.142;9.960;2024-03-23T12:10:52;6.22;;;2.28;;
39442;SDS011;25147;52.142;9.960;2024-03-23T12:13:19;5.90;;;2.28;;
39442;SDS011;25147;52.142;9.960;2024-03-23T12:15:50;4.82;;;2.13;;
39442;SDS011;25147;52.142;9.960;2024-03-23T12:18:18;7.70;;;2.28;;
39442;SDS011;25147;52.142;9.960;2024-03-23T12:20:54;6.55;;;2.20;;
39442;SDS011;25147;52.142;9.960;2024-03-23T12:23:20;7.05;;;2.80;;
39442;SDS011;25147;52.142;9.960;2024-03-23T12:25:53;6.85;;;2.78;;
39442;SDS011;25147;52.142;9.960;2024-03-23T12:28:29;5.70;;;3.35;;
39442;SDS011;25147;52.142;9.960;2024-03-23T12:31:03;5.90;;;2.50;;
39442;SDS011;25147;52.142;9.960;2024-03-23T12:33:32;6.38;;;3.05;;
39442;SDS011;25147;52.142;9.960;2024-03-23T12:35:58;4.97;;;2.90;;
39442;SDS011;25147;52.142;9.960;2024-03-23T12:38:24;3.75;;;2.63;;
39442;SDS011;25147;52.142;9.960;2024-03-23T12:40:51;6.85;;;3.05;;
39442;SDS011;25147;52.142;9.960;2024-03-23T12:43:17;6.97;;;2.85;;
39442;SDS011;25147;52.142;9.960;2024-03-23T12:45:45;4.97;;;2.90;;
39442;SDS011;25147;52.142;9.960;2024-03-23T12:48:13;5.55;;;2.95;;
39442;SDS011;25147;52.142;9.960;2024-03-23T12:50:40;6.22;;;2.88;;
39442;SDS011;25147;52.142;9.960;2024-03-23T12:53:06;6.95;;;2.78;;
39442;SDS011;25147;52.142;9.960;2024-03-23T12:55:34;6.25;;;2.80;;
39442;SDS011;25147;52.142;9.960;2024-03-23T12:58:00;7.10;;;2.20;;
39442;SDS011;25147;52.142;9.960;2024-03-23T13:00:27;4.50;;;1.70;;
39442;SDS011;25147;52.142;9.960;2024-03-23T13:02:55;3.92;;;1.50;;
39442;SDS011;25147;52.142;9.960;2024-03-23T13:05:26;3.03;;;1.17;;
39442;SDS011;25147;52.142;9.960;2024-03-23T13:08:09;1.27;;;1.00;;
39442;SDS011;25147;52.142;9.960;2024-03-23T13:10:46;2.38;;;1.40;;
39442;SDS011;25147;52.142;9.960;2024-03-23T13:13:12;1.55;;;1.15;;
39442;SDS011;25147;52.142;9.960;2024-03-23T13:15:49;3.40;;;1.17;;
39442;SDS011;25147;52.142;9.960;2024-03-23T13:18:15;4.22;;;1.73;;
39442;SDS011;25147;52.142;9.960;2024-03-23T13:20:43;2.22;;;1.30;;
39442;SDS011;25147;52.142;9.960;2024-03-23T13:23:09;3.35;;;1.40;;
39442;SDS011;25147;52.142;9.960;2024-03-23T13:25:39;3.53;;;1.50;;
39442;SDS011;25147;52.142;9.960;2024-03-23T13:28:05;3.58;;;1.40;;
39442;SDS011;25147;52.142;9.960;2024-03-23T13:30:32;4.70;;;1.10;;
39442;SDS011;25147;52.142;9.960;2024-03-23T13:32:58;3.38;;;1.20;;
39442;SDS011;25147;52.142;9.960;2024-03-23T13:35:26;1.85;;;1.13;;
39442;SDS011;25147;52.142;9.960;2024-03-23T13:37:53;1.13;;;0.80;;
39442;SDS011;25147;52.142;9.960;2024-03-23T13:40:20;1.88;;;1.00;;
39442;SDS011;25147;52.142;9.960;2024-03-23T13:42:45;3.58;;;2.20;;
39442;SDS011;25147;52.142;9.960;2024-03-23T13:45:12;2.65;;;1.20;;
39442;SDS011;25147;52.142;9.960;2024-03-23T13:47:38;2.75;;;1.20;;
39442;SDS011;25147;52.142;9.960;2024-03-23T13:50:05;4.00;;;1.40;;
39442;SDS011;25147;52.142;9.960;2024-03-23T13:52:32;1.63;;;1.23;;
39442;SDS011;25147;52.142;9.960;2024-03-23T13:55:03;2.00;;;1.23;;
39442;SDS011;25147;52.142;9.960;2024-03-23T13:57:34;5.07;;;1.42;;
39442;SDS011;25147;52.142;9.960;2024-03-23T14:00:01;3.88;;;1.90;;
39442;SDS011;25147;52.142;9.960;2024-03-23T14:02:31;4.38;;;1.55;;
39442;SDS011;25147;52.142;9.960;2024-03-23T14:05:01;4.68;;;1.60;;
39442;SDS011;25147;52.142;9.960;2024-03-23T14:07:33;3.80;;;1.90;;
39442;SDS011;25147;52.142;9.960;2024-03-23T14:10:03;2.92;;;1.80;;
39442;SDS011;25147;52.142;9.960;2024-03-23T14:12:31;4.28;;;2.08;;
39442;SDS011;25147;52.142;9.960;2024-03-23T14:14:59;4.75;;;2.00;;
39442;SDS011;25147;52.142;9.960;2024-03-23T14:17:24;5.38;;;2.25;;
39442;SDS011;25147;52.142;9.960;2024-03-23T14:19:52;4.57;;;2.10;;
39442;SDS011;25147;52.142;9.960;2024-03-23T14:22:28;5.85;;;2.00;;
39442;SDS011;25147;52.142;9.960;2024-03-23T14:24:57;5.88;;;2.20;;
39442;SDS011;25147;52.142;9.960;2024-03-23T14:27:25;3.10;;;2.05;;
39442;SDS011;25147;52.142;9.960;2024-03-23T14:29:56;2.22;;;2.00;;
39442;SDS011;25147;52.142;9.960;2024-03-23T14:32:21;3.40;;;1.80;;
39442;SDS011;25147;52.142;9.960;2024-03-23T14:34:49;3.22;;;1.80;;
39442;SDS011;25147;52.142;9.960;2024-03-23T14:37:21;2.40;;;1.90;;
39442;SDS011;25147;52.142;9.960;2024-03-23T14:39:48;2.55;;;1.70;;
39442;SDS011;25147;52.142;9.960;2024-03-23T14:42:13;2.22;;;1.65;;
39442;SDS011;25147;52.142;9.960;2024-03-23T14:44:56;2.03;;;1.25;;
39442;SDS011;25147;52.142;9.960;2024-03-23T14:47:28;1.70;;;1.20;;
39442;SDS011;25147;52.142;9.960;2024-03-23T14:50:10;2.35;;;1.17;;
39442;SDS011;25147;52.142;9.960;2024-03-23T14:52:43;1.55;;;1.02;;
39442;SDS011;25147;52.142;9.960;2024-03-23T14:55:22;1.08;;;0.60;;
39442;SDS011;25147;52.142;9.960;2024-03-23T14:58:00;2.13;;;0.60;;
39442;SDS011;25147;52.142;9.960;2024-03-23T15:00:42;1.43;;;0.80;;
39442;SDS011;25147;52.142;9.960;2024-03-23T15:03:13;2.03;;;0.70;;
39442;SDS011;25147;52.142;9.960;2024-03-23T15:05:57;0.77;;;0.70;;
39442;SDS011;25147;52.142;9.960;2024-03-23T15:08:30;1.17;;;0.73;;
39442;SDS011;25147;52.142;9.960;2024-03-23T15:11:11;1.20;;;0.88;;
39442;SDS011;25147;52.142;9.960;2024-03-23T15:13:43;0.70;;;0.70;;
39442;SDS011;25147;52.142;9.960;2024-03-23T15:16:16;1.80;;;0.80;;
39442;SDS011;25147;52.142;9.960;2024-03-23T15:18:45;1.33;;;0.70;;
39442;SDS011;25147;52.142;9.960;2024-03-23T15:21:11;0.68;;;0.65;;
39442;SDS011;25147;52.142;9.960;2024-03-23T15:23:45;2.20;;;0.80;;
39442;SDS011;25147;52.142;9.960;2024-03-23T15:26:11;2.50;;;0.70;;
39442;SDS011;25147;52.142;9.960;2024-03-23T15:28:38;0.65;;;0.60;;
39442;SDS011;25147;52.142;9.960;2024-03-23T15:31:07;1.30;;;0.77;;
39442;SDS011;25147;52.142;9.960;2024-03-23T15:33:39;2.22;;;0.65;;
39442;SDS011;25147;52.142;9.960;2024-03-23T15:36:08;4.20;;;1.42;;
39442;SDS011;25147;52.142;9.960;2024-03-23T15:38:35;1.60;;;1.10;;
39442;SDS011;25147;52.142;9.960;2024-03-23T15:41:01;0.90;;;0.82;;
39442;SDS011;25147;52.142;9.960;2024-03-23T15:43:29;1.60;;;1.00;;
39442;SDS011;25147;52.142;9.960;2024-03-23T15:45:57;1.13;;;0.85;;
39442;SDS011;25147;52.142;9.960;2024-03-23T15:48:30;2.88;;;1.13;;
39442;SDS011;25147;52.142;9.960;2024-03-23T15:51:02;1.48;;;1.20;;
39442;SDS011;25147;52.142;9.960;2024-03-23T15:53:30;2.55;;;1.25;;
39442;SDS011;25147;52.142;9.960;2024-03-23T15:55:56;1.92;;;1.40;;
39442;SDS011;25147;52.142;9.960;2024-03-23T15:58:32;2.08;;;1.30;;
39442;SDS011;25147;52.142;9.960;2024-03-23T16:01:06;3.95;;;1.48;;
39442;SDS011;25147;52.142;9.960;2024-03-23T16:03:36;1.58;;;1.45;;
39442;SDS011;25147;52.142;9.960;2024-03-23T16:06:06;3.20;;;1.27;;
39442;SDS011;25147;52.142;9.960;2024-03-23T16:08:34;2.65;;;1.35;;
39442;SDS011;25147;52.142;9.960;2024-03-23T16:11:17;3.63;;;1.40;;
39442;SDS011;25147;52.142;9.960;2024-03-23T16:13:57;3.58;;;1.27;;
39442;SDS011;25147;52.142;9.960;2024-03-23T16:16:23;3.03;;;1.40;;
39442;SDS011;25147;52.142;9.960;2024-03-23T16:19:00;3.03;;;1.00;;
39442;SDS011;25147;52.142;9.960;2024-03-23T16:21:27;3.42;;;1.23;;
39442;SDS011;25147;52.142;9.960;2024-03-23T16:23:59;2.47;;;1.27;;
39442;SDS011;25147;52.142;9.960;2024-03-23T16:26:34;4.40;;;1.25;;
39442;SDS011;25147;52.142;9.960;2024-03-23T16:29:05;3.50;;;1.30;;
39442;SDS011;25147;52.142;9.960;2024-03-23T16:38:00;2.15;;;1.25;;
39442;SDS011;25147;52.142;9.960;2024-03-23T16:40:27;3.58;;;1.30;;
39442;SDS011;25147;52.142;9.960;2024-03-23T16:42:53;3.42;;;1.05;;
39442;SDS011;25147;52.142;9.960;2024-03-23T16:45:20;5.90;;;1.27;;
39442;SDS011;25147;52.142;9.960;2024-03-23T16:47:49;5.05;;;1.42;;
39442;SDS011;25147;52.142;9.960;2024-03-23T16:50:19;3.30;;;1.33;;
39442;SDS011;25147;52.142;9.960;2024-03-23T16:52:51;2.65;;;2.00;;
39442;SDS011;25147;52.142;9.960;2024-03-23T16:55:20;4.05;;;1.70;;
39442;SDS011;25147;52.142;9.960;2024-03-23T16:57:46;7.60;;;1.70;;
39442;SDS011;25147;52.142;9.960;2024-03-23T17:00:13;3.60;;;1.88;;
39442;SDS011;25147;52.142;9.960;2024-03-23T17:02:41;3.10;;;1.30;;
39442;SDS011;25147;52.142;9.960;2024-03-23T17:05:10;3.63;;;1.70;;
39442;SDS011;25147;52.142;9.960;2024-03-23T17:07:36;6.43;;;1.70;;
39442;SDS011;25147;52.142;9.960;2024-03-23T17:10:05;3.78;;;1.60;;
39442;SDS011;25147;52.142;9.960;2024-03-23T17:12:31;2.65;;;1.75;;